createdAt,value
2018-01-22T00:00:56.468Z,97.30
2018-01-22T00:01:56.456Z,97.30
2018-01-22T00:02:56.447Z,97.21
2018-01-22T00:03:56.438Z,97.68
2018-01-22T00:04:56.430Z,97.59
2018-01-22T00:05:56.410Z,97.97
2018-01-22T00:06:56.398Z,97.68
2018-01-22T00:07:56.398Z,97.40
2018-01-22T00:08:56.402Z,97.49
2018-01-22T00:09:56.374Z,97.40
2018-01-22T00:10:56.368Z,97.02
2018-01-22T00:11:56.359Z,97.02
2018-01-22T00:12:56.356Z,97.21
2018-01-22T00:13:56.349Z,97.40
2018-01-22T00:14:56.322Z,97.21
2018-01-22T00:15:56.321Z,97.59
2018-01-22T00:16:56.310Z,97.59
2018-01-22T00:17:56.303Z,97.30
2018-01-22T00:18:56.287Z,97.49
2018-01-22T00:19:56.294Z,97.21
2018-01-22T00:20:56.264Z,97.40
2018-01-22T00:21:56.249Z,97.21
2018-01-22T00:22:56.248Z,97.21
2018-01-22T00:23:56.240Z,96.83
2018-01-22T00:24:56.224Z,96.83
2018-01-22T00:25:56.214Z,97.02
2018-01-22T00:26:56.209Z,97.11
2018-01-22T00:27:56.200Z,97.11
2018-01-22T00:28:56.191Z,96.92
2018-01-22T00:29:56.179Z,96.73
2018-01-22T00:30:56.165Z,96.83
2018-01-22T00:31:56.164Z,96.26
2018-01-22T00:32:56.145Z,96.92
2018-01-22T00:33:56.143Z,96.73
2018-01-22T00:34:56.121Z,96.92
2018-01-22T00:35:56.121Z,96.92
2018-01-22T00:36:56.110Z,97.11
2018-01-22T00:37:56.095Z,97.49
2018-01-22T00:38:56.090Z,97.21
2018-01-22T00:39:56.080Z,97.49
2018-01-22T00:40:56.071Z,97.78
2018-01-22T00:41:56.066Z,97.68
2018-01-22T00:42:56.052Z,97.40
2018-01-22T00:43:56.044Z,97.02
2018-01-22T00:44:56.038Z,97.40
2018-01-22T00:45:56.020Z,96.83
2018-01-22T00:46:56.010Z,97.11
2018-01-22T00:47:55.999Z,97.21
2018-01-22T00:48:55.994Z,96.83
2018-01-22T00:49:55.975Z,96.83
2018-01-22T00:50:55.967Z,95.98
2018-01-22T00:51:55.960Z,96.55
2018-01-22T00:52:55.946Z,96.36
2018-01-22T00:53:55.935Z,96.73
2018-01-22T00:54:55.929Z,97.30
2018-01-22T00:55:55.917Z,97.40
2018-01-22T00:56:55.912Z,97.21
2018-01-22T00:57:55.894Z,96.83
2018-01-22T00:58:55.889Z,96.45
2018-01-22T00:59:55.880Z,96.55
2018-01-22T01:00:55.874Z,96.73
2018-01-22T01:01:55.852Z,97.11
2018-01-22T01:02:55.847Z,97.11
2018-01-22T01:03:55.848Z,97.11
2018-01-22T01:04:55.832Z,97.11
2018-01-22T01:05:55.818Z,97.11
2018-01-22T01:06:55.807Z,96.64
2018-01-22T01:07:55.798Z,96.26
2018-01-22T01:08:55.792Z,96.26
2018-01-22T01:09:55.770Z,96.73
2018-01-22T01:10:55.769Z,96.83
2018-01-22T01:11:55.774Z,96.83
2018-01-22T01:12:55.751Z,96.83
2018-01-22T01:13:55.745Z,97.40
2018-01-22T01:14:55.730Z,97.21
2018-01-22T01:15:55.724Z,96.92
2018-01-22T01:16:55.715Z,97.11
2018-01-22T01:17:55.694Z,97.21
2018-01-22T01:18:55.691Z,97.40
2018-01-22T01:19:55.687Z,97.59
2018-01-22T01:20:55.664Z,97.40
2018-01-22T01:21:55.668Z,97.68
2018-01-22T01:22:55.656Z,97.49
2018-01-22T01:23:55.637Z,97.59
2018-01-22T01:24:55.632Z,97.97
2018-01-22T01:25:55.621Z,97.87
2018-01-22T01:26:55.610Z,98.25
2018-01-22T01:27:55.615Z,98.54
2018-01-22T01:28:55.584Z,98.16
2018-01-22T01:29:55.589Z,97.97
2018-01-22T01:30:55.577Z,97.97
2018-01-22T01:31:55.561Z,98.25
2018-01-22T01:32:55.552Z,98.16
2018-01-22T01:33:55.544Z,97.97
2018-01-22T01:34:55.537Z,97.59
2018-01-22T01:35:55.526Z,98.44
2018-01-22T01:36:55.516Z,98.35
2018-01-22T01:37:55.503Z,98.63
2018-01-22T01:38:55.489Z,98.44
2018-01-22T01:39:55.498Z,97.87
2018-01-22T01:40:55.472Z,98.16
2018-01-22T01:41:55.459Z,97.78
2018-01-22T01:42:55.452Z,98.44
2018-01-22T01:43:55.447Z,98.16
2018-01-22T01:44:55.431Z,98.44
2018-01-22T01:45:55.422Z,98.82
2018-01-22T01:46:55.408Z,99.20
2018-01-22T01:47:55.400Z,98.16
2018-01-22T01:48:55.392Z,98.54
2018-01-22T01:49:55.379Z,98.54
2018-01-22T01:50:55.370Z,98.54
2018-01-22T01:51:55.368Z,98.54
2018-01-22T01:52:55.355Z,98.16
2018-01-22T01:53:55.342Z,98.16
2018-01-22T01:54:55.332Z,98.54
2018-01-22T01:55:55.324Z,98.35
2018-01-22T01:56:55.313Z,98.35
2018-01-22T01:57:55.301Z,98.54
2018-01-22T01:58:55.306Z,98.16
2018-01-22T01:59:55.281Z,98.44
2018-01-22T02:00:55.272Z,98.06
2018-01-22T02:01:55.260Z,98.16
2018-01-22T02:02:55.249Z,97.97
2018-01-22T02:03:55.248Z,98.06
2018-01-22T02:04:55.230Z,98.06
2018-01-22T02:05:55.220Z,98.16
2018-01-22T02:06:55.212Z,98.16
2018-01-22T02:07:55.205Z,97.78
2018-01-22T02:08:55.192Z,98.16
2018-01-22T02:09:55.182Z,97.59
2018-01-22T02:10:55.173Z,97.78
2018-01-22T02:11:55.165Z,97.02
2018-01-22T02:12:55.155Z,96.92
2018-01-22T02:13:55.140Z,97.59
2018-01-22T02:14:55.129Z,97.78
2018-01-22T02:15:55.124Z,98.44
2018-01-22T02:16:55.109Z,98.54
2018-01-22T02:17:55.098Z,98.16
2018-01-22T02:18:55.102Z,98.82
2018-01-22T02:19:55.089Z,98.91
2018-01-22T02:20:55.073Z,98.91
2018-01-22T02:21:55.062Z,99.48
2018-01-22T02:22:55.061Z,99.10
2018-01-22T02:23:55.044Z,99.58
2018-01-22T02:24:55.028Z,99.58
2018-01-22T02:25:55.018Z,99.48
2018-01-22T02:26:55.008Z,99.58
2018-01-22T02:27:54.994Z,99.96
2018-01-22T02:28:54.998Z,99.86
2018-01-22T02:29:54.979Z,99.48
2018-01-22T02:30:54.981Z,99.99
2018-01-22T02:31:54.963Z,99.29
2018-01-22T02:32:54.953Z,99.58
2018-01-22T02:33:54.936Z,99.77
2018-01-22T02:34:54.931Z,99.86
2018-01-22T02:35:54.924Z,99.20
2018-01-22T02:36:54.909Z,99.29
2018-01-22T02:37:54.903Z,99.58
2018-01-22T02:38:54.889Z,99.29
2018-01-22T02:39:54.881Z,99.29
2018-01-22T02:40:54.870Z,99.20
2018-01-22T02:41:54.862Z,99.39
2018-01-22T02:42:54.848Z,99.48
2018-01-22T02:43:54.840Z,99.20
2018-01-22T02:44:54.831Z,99.10
2018-01-22T02:45:54.819Z,99.29
2018-01-22T02:46:54.808Z,99.20
2018-01-22T02:47:54.802Z,99.58
2018-01-22T02:48:54.804Z,99.86
2018-01-22T02:49:54.782Z,99.58
2018-01-22T02:50:54.771Z,99.86
2018-01-22T02:51:54.781Z,99.58
2018-01-22T02:52:54.763Z,99.99
2018-01-22T02:53:54.771Z,99.99
2018-01-22T02:54:54.737Z,99.20
2018-01-22T02:55:54.725Z,99.10
2018-01-22T02:56:54.714Z,99.67
2018-01-22T02:57:54.708Z,99.99
2018-01-22T02:58:54.697Z,99.77
2018-01-22T02:59:54.695Z,99.99
2018-01-22T03:00:54.669Z,99.20
2018-01-22T03:01:54.665Z,99.77
2018-01-22T03:02:54.654Z,99.29
2018-01-22T03:03:54.657Z,99.67
2018-01-22T03:04:54.637Z,99.58
2018-01-22T03:05:54.616Z,99.86
2018-01-22T03:06:54.619Z,99.29
2018-01-22T03:07:54.601Z,99.39
2018-01-22T03:08:54.618Z,98.91
2018-01-22T03:09:54.582Z,99.10
2018-01-22T03:10:54.578Z,99.01
2018-01-22T03:11:54.564Z,99.01
2018-01-22T03:12:54.554Z,99.10
2018-01-22T03:13:54.535Z,98.91
2018-01-22T03:14:54.532Z,99.06
2018-01-22T03:15:54.533Z,99.10
2018-01-22T03:16:54.546Z,99.15
2018-01-22T03:17:54.513Z,99.06
2018-01-22T03:18:54.496Z,99.06
2018-01-22T03:19:54.500Z,99.15
2018-01-22T03:20:54.481Z,98.96
2018-01-22T03:21:54.462Z,99.10
2018-01-22T03:22:54.467Z,98.49
2018-01-22T03:23:54.446Z,98.96
2018-01-22T03:24:54.435Z,99.15
2018-01-22T03:25:54.424Z,99.44
2018-01-22T03:26:54.433Z,99.15
2018-01-22T03:27:54.409Z,99.44
2018-01-22T03:28:54.398Z,99.06
2018-01-22T03:29:54.395Z,99.06
2018-01-22T03:30:54.382Z,99.06
2018-01-22T03:31:54.367Z,98.77
2018-01-22T03:32:54.361Z,99.44
2018-01-22T03:33:54.344Z,98.87
2018-01-22T03:34:54.343Z,99.15
2018-01-22T03:35:54.325Z,99.25
2018-01-22T03:36:54.320Z,99.06
2018-01-22T03:37:54.313Z,99.06
2018-01-22T03:38:54.308Z,98.58
2018-01-22T03:39:54.289Z,98.58
2018-01-22T03:40:54.276Z,98.39
2018-01-22T03:41:54.262Z,99.25
2018-01-22T03:42:54.270Z,98.68
2018-01-22T03:43:54.251Z,99.44
2018-01-22T03:44:54.241Z,99.15
2018-01-22T03:45:54.232Z,98.11
2018-01-22T03:46:54.214Z,98.58
2018-01-22T03:47:54.220Z,98.49
2018-01-22T03:48:54.215Z,98.49
2018-01-22T03:49:54.190Z,98.11
2018-01-22T03:50:54.177Z,98.21
2018-01-22T03:51:54.169Z,98.39
2018-01-22T03:52:54.157Z,98.49
2018-01-22T03:53:54.154Z,98.39
2018-01-22T03:54:54.138Z,98.58
2018-01-22T03:55:54.130Z,98.30
2018-01-22T03:56:54.119Z,98.58
2018-01-22T03:57:54.110Z,98.96
2018-01-22T03:58:54.097Z,99.25
2018-01-22T03:59:54.094Z,98.30
2018-01-22T04:00:54.100Z,98.58
2018-01-22T04:01:54.084Z,99.25
2018-01-22T04:02:54.070Z,98.96
2018-01-22T04:03:54.056Z,99.25
2018-01-22T04:04:54.048Z,99.06
2018-01-22T04:05:54.031Z,98.96
2018-01-22T04:06:54.021Z,99.44
2018-01-22T04:07:54.014Z,99.25
2018-01-22T04:08:54.003Z,99.34
2018-01-22T04:09:53.999Z,99.82
2018-01-22T04:10:53.983Z,99.06
2018-01-22T04:11:53.974Z,99.72
2018-01-22T04:12:53.963Z,99.72
2018-01-22T04:13:53.951Z,99.34
2018-01-22T04:14:53.947Z,99.53
2018-01-22T04:15:53.938Z,99.63
2018-01-22T04:16:53.930Z,99.63
2018-01-22T04:17:53.918Z,99.99
2018-01-22T04:18:53.918Z,99.99
2018-01-22T04:19:53.902Z,99.82
2018-01-22T04:20:53.890Z,99.91
2018-01-22T04:21:53.879Z,99.99
2018-01-22T04:22:53.866Z,99.99
2018-01-22T04:23:53.858Z,99.72
2018-01-22T04:24:53.851Z,99.99
2018-01-22T04:25:53.838Z,99.99
2018-01-22T04:26:53.829Z,99.99
2018-01-22T04:27:53.821Z,99.82
2018-01-22T04:28:53.813Z,99.99
2018-01-22T04:29:53.808Z,99.99
2018-01-22T04:30:53.789Z,99.99
2018-01-22T04:31:53.778Z,99.91
2018-01-22T04:32:53.780Z,99.99
2018-01-22T04:33:53.759Z,99.99
2018-01-22T04:34:53.745Z,99.99
2018-01-22T04:35:53.741Z,99.99
2018-01-22T04:36:53.739Z,99.82
2018-01-22T04:37:53.721Z,99.99
2018-01-22T04:38:53.715Z,99.99
2018-01-22T04:39:53.718Z,99.91
2018-01-22T04:40:53.691Z,99.99
2018-01-22T04:41:53.680Z,99.99
2018-01-22T04:42:53.682Z,99.99
2018-01-22T04:43:53.672Z,99.99
2018-01-22T04:44:53.674Z,99.99
2018-01-22T04:45:53.646Z,99.99
2018-01-22T04:46:53.632Z,99.99
2018-01-22T04:47:53.625Z,99.99
2018-01-22T04:48:53.614Z,99.99
2018-01-22T04:49:53.620Z,99.99
2018-01-22T04:50:53.606Z,99.99
2018-01-22T04:51:53.594Z,99.99
2018-01-22T04:52:53.576Z,99.99
2018-01-22T04:53:53.565Z,99.99
2018-01-22T04:54:53.560Z,99.99
2018-01-22T04:55:53.548Z,99.99
2018-01-22T04:56:53.537Z,99.99
2018-01-22T04:57:53.544Z,99.99
2018-01-22T04:58:53.521Z,99.99
2018-01-22T04:59:53.517Z,99.99
2018-01-22T05:00:53.496Z,99.99
2018-01-22T05:01:53.492Z,99.99
2018-01-22T05:02:53.485Z,99.99
2018-01-22T05:03:53.470Z,99.99
2018-01-22T05:04:53.474Z,99.99
2018-01-22T05:05:53.452Z,99.99
2018-01-22T05:06:53.439Z,99.99
2018-01-22T05:07:53.438Z,99.99
2018-01-22T05:08:53.419Z,99.99
2018-01-22T05:09:53.412Z,99.99
2018-01-22T05:10:53.407Z,99.99
2018-01-22T05:11:53.397Z,99.99
2018-01-22T05:12:53.388Z,99.99
2018-01-22T05:13:53.377Z,99.99
2018-01-22T05:14:53.373Z,99.99
2018-01-22T05:15:53.359Z,99.99
2018-01-22T05:16:53.348Z,99.99
2018-01-22T05:17:53.337Z,99.99
2018-01-22T05:18:53.325Z,99.99
2018-01-22T05:19:53.318Z,99.99
2018-01-22T05:20:53.309Z,99.99
2018-01-22T05:21:53.294Z,99.99
2018-01-22T05:22:53.296Z,99.99
2018-01-22T05:23:53.277Z,99.99
2018-01-22T05:24:53.268Z,99.99
2018-01-22T05:25:53.256Z,99.99
2018-01-22T05:26:53.249Z,99.99
2018-01-22T05:27:53.248Z,99.99
2018-01-22T05:28:53.230Z,99.99
2018-01-22T05:29:53.222Z,99.99
2018-01-22T05:30:53.209Z,99.99
2018-01-22T05:31:53.196Z,99.99
2018-01-22T05:32:53.190Z,99.99
2018-01-22T05:33:53.181Z,99.99
2018-01-22T05:34:53.202Z,99.99
2018-01-22T05:35:53.166Z,99.99
2018-01-22T05:36:53.148Z,99.99
2018-01-22T05:37:53.141Z,99.99
2018-01-22T05:38:53.153Z,99.99
2018-01-22T05:39:53.143Z,99.99
2018-01-22T05:40:53.109Z,99.99
2018-01-22T05:41:53.102Z,99.99
2018-01-22T05:42:53.097Z,99.99
2018-01-22T05:43:53.087Z,99.99
2018-01-22T05:44:53.078Z,99.99
2018-01-22T05:45:53.078Z,99.99
2018-01-22T05:46:53.049Z,99.99
2018-01-22T05:47:53.042Z,99.99
2018-01-22T05:48:53.026Z,99.99
2018-01-22T05:49:53.242Z,99.99
2018-01-22T05:50:53.041Z,99.99
2018-01-22T05:51:53.034Z,99.99
2018-01-22T05:52:52.999Z,99.99
2018-01-22T05:53:53.004Z,99.99
2018-01-22T05:54:52.980Z,99.99
2018-01-22T05:55:52.969Z,99.99
2018-01-22T05:56:52.960Z,99.99
2018-01-22T05:57:52.968Z,99.99
2018-01-22T05:58:52.934Z,99.99
2018-01-22T05:59:52.952Z,99.99
2018-01-22T06:00:52.937Z,99.99
2018-01-22T06:01:52.922Z,99.99
2018-01-22T06:02:52.994Z,99.99
2018-01-22T06:03:52.900Z,99.99
2018-01-22T06:04:52.885Z,99.99
2018-01-22T06:05:52.875Z,99.99
2018-01-22T06:06:52.862Z,99.99
2018-01-22T06:07:52.856Z,99.99
2018-01-22T06:08:52.850Z,99.99
2018-01-22T06:09:52.840Z,99.99
2018-01-22T06:10:52.825Z,99.99
2018-01-22T06:11:52.820Z,99.99
2018-01-22T06:12:52.819Z,99.99
2018-01-22T06:13:52.796Z,99.99
2018-01-22T06:14:52.794Z,99.99
2018-01-22T06:15:52.777Z,99.99
2018-01-22T06:16:52.782Z,99.99
2018-01-22T06:17:52.760Z,99.99
2018-01-22T06:18:52.783Z,99.99
2018-01-22T06:19:52.737Z,99.99
2018-01-22T06:20:52.745Z,99.99
2018-01-22T06:21:52.732Z,99.99
2018-01-22T06:22:52.739Z,99.99
2018-01-22T06:23:52.707Z,99.99
2018-01-22T06:24:52.703Z,99.99
2018-01-22T06:25:52.682Z,99.99
2018-01-22T06:26:52.686Z,99.99
2018-01-22T06:27:52.686Z,99.99
2018-01-22T06:28:52.655Z,99.99
2018-01-22T06:29:52.665Z,99.99
2018-01-22T06:30:52.632Z,99.99
2018-01-22T06:31:52.635Z,99.99
2018-01-22T06:32:52.622Z,99.99
2018-01-22T06:33:52.652Z,99.99
2018-01-22T06:34:52.603Z,99.99
2018-01-22T06:35:52.593Z,99.99
2018-01-22T06:36:52.608Z,99.99
2018-01-22T06:37:52.601Z,99.99
2018-01-22T06:38:52.579Z,99.99
2018-01-22T06:39:52.579Z,99.99
2018-01-22T06:40:52.544Z,99.99
2018-01-22T06:41:52.557Z,99.99
2018-01-22T06:42:52.524Z,99.99
2018-01-22T06:43:52.547Z,99.99
2018-01-22T06:44:52.569Z,99.99
2018-01-22T06:45:52.543Z,99.99
2018-01-22T06:46:52.499Z,99.99
2018-01-22T06:47:52.553Z,99.99
2018-01-22T06:48:52.637Z,99.99
2018-01-22T06:49:52.500Z,99.99
2018-01-22T06:50:52.519Z,99.99
2018-01-22T06:51:52.477Z,99.99
2018-01-22T06:52:54.444Z,99.99
2018-01-22T06:53:52.427Z,99.99
2018-01-22T06:54:52.420Z,99.99
2018-01-22T06:55:52.427Z,99.99
2018-01-22T06:56:52.403Z,99.99
2018-01-22T06:57:52.399Z,99.99
2018-01-22T06:58:52.393Z,99.99
2018-01-22T06:59:52.392Z,99.99
2018-01-22T07:00:52.377Z,99.99
2018-01-22T07:01:52.364Z,99.99
2018-01-22T07:02:52.352Z,99.99
2018-01-22T07:03:52.339Z,99.99
2018-01-22T07:04:52.377Z,99.99
2018-01-22T07:05:52.321Z,99.99
2018-01-22T07:06:52.311Z,99.91
2018-01-22T07:07:52.307Z,99.99
2018-01-22T07:08:52.298Z,99.99
2018-01-22T07:09:52.290Z,99.99
2018-01-22T07:10:52.281Z,99.99
2018-01-22T07:11:52.340Z,99.99
2018-01-22T07:12:52.259Z,99.99
2018-01-22T07:13:52.248Z,99.99
2018-01-22T07:14:52.244Z,99.99
2018-01-22T07:15:52.234Z,99.99
2018-01-22T07:16:52.232Z,99.97
2018-01-22T07:17:52.259Z,99.99
2018-01-22T07:18:52.227Z,99.99
2018-01-22T07:19:52.205Z,99.99
2018-01-22T07:20:52.196Z,99.99
2018-01-22T07:21:52.208Z,99.99
2018-01-22T07:22:52.180Z,99.99
2018-01-22T07:23:52.167Z,99.99
2018-01-22T07:24:52.148Z,99.99
2018-01-22T07:25:52.154Z,99.99
2018-01-22T07:26:52.161Z,99.99
2018-01-22T07:27:52.279Z,99.99
2018-01-22T07:28:52.283Z,99.99
2018-01-22T07:29:52.136Z,99.99
2018-01-22T07:30:52.196Z,99.99
2018-01-22T07:31:52.232Z,99.99
2018-01-22T07:32:52.204Z,99.99
2018-01-22T07:33:52.144Z,99.99
2018-01-22T07:34:52.245Z,99.99
2018-01-22T07:35:52.178Z,99.99
2018-01-22T07:36:52.123Z,99.99
2018-01-22T07:37:52.167Z,99.99
2018-01-22T07:38:52.217Z,99.99
2018-01-22T07:39:52.153Z,99.99
2018-01-22T07:40:52.200Z,99.97
2018-01-22T07:41:52.046Z,99.49
2018-01-22T07:42:52.176Z,99.97
2018-01-22T07:43:52.067Z,99.77
2018-01-22T07:44:52.024Z,99.87
2018-01-22T07:45:51.985Z,99.21
2018-01-22T07:46:52.064Z,99.58
2018-01-22T07:47:52.041Z,99.63
2018-01-22T07:48:52.103Z,99.35
2018-01-22T07:49:52.122Z,99.58
2018-01-22T07:50:52.021Z,99.49
2018-01-22T07:51:52.079Z,99.99
2018-01-22T07:52:51.920Z,99.82
2018-01-22T07:53:51.928Z,99.99
2018-01-22T07:54:51.896Z,99.44
2018-01-22T07:55:54.641Z,99.91
2018-01-22T07:56:51.880Z,99.87
2018-01-22T07:57:51.888Z,99.91
2018-01-22T07:58:51.866Z,99.99
2018-01-22T07:59:51.857Z,99.16
2018-01-22T08:00:51.846Z,99.06
2018-01-22T08:01:51.854Z,99.82
2018-01-22T08:02:51.832Z,99.63
2018-01-22T08:03:51.832Z,99.99
2018-01-22T08:04:51.836Z,99.99
2018-01-22T08:05:51.810Z,99.99
2018-01-22T08:06:51.817Z,99.73
2018-01-22T08:07:51.809Z,99.99
2018-01-22T08:08:51.785Z,99.99
2018-01-22T08:09:51.771Z,99.87
2018-01-22T08:10:51.768Z,99.99
2018-01-22T08:11:51.778Z,99.99
2018-01-22T08:12:51.741Z,99.99
2018-01-22T08:13:51.768Z,99.99
2018-01-22T08:14:51.751Z,99.97
2018-01-22T08:15:51.717Z,99.99
2018-01-22T08:16:51.720Z,99.99
2018-01-22T08:17:51.693Z,99.99
2018-01-22T08:18:51.690Z,99.99
2018-01-22T08:19:51.679Z,99.77
2018-01-22T08:20:51.671Z,99.77
2018-01-22T08:21:51.658Z,99.99
2018-01-22T08:22:51.660Z,99.99
2018-01-22T08:23:51.665Z,99.99
2018-01-22T08:24:51.638Z,99.99
2018-01-22T08:25:51.627Z,99.99
2018-01-22T08:26:51.629Z,99.99
2018-01-22T08:27:51.627Z,99.99
2018-01-22T08:28:51.622Z,99.99
2018-01-22T08:29:51.637Z,99.99
2018-01-22T08:30:51.602Z,99.99
2018-01-22T08:31:51.599Z,99.99
2018-01-22T08:32:51.568Z,99.99
2018-01-22T08:33:51.571Z,99.99
2018-01-22T08:34:51.559Z,99.99
2018-01-22T08:35:51.567Z,99.99
2018-01-22T08:36:51.569Z,99.99
2018-01-22T08:37:51.552Z,99.99
2018-01-22T08:38:51.549Z,99.99
2018-01-22T08:39:51.518Z,99.99
2018-01-22T08:40:51.504Z,99.99
2018-01-22T08:41:51.508Z,99.99
2018-01-22T08:42:51.506Z,99.99
2018-01-22T08:43:51.493Z,99.87
2018-01-22T08:44:51.480Z,99.99
2018-01-22T08:45:51.468Z,99.99
2018-01-22T08:46:51.451Z,99.99
2018-01-22T08:47:51.451Z,99.99
2018-01-22T08:48:51.454Z,99.99
2018-01-22T08:49:51.428Z,99.99
2018-01-22T08:50:51.442Z,99.97
2018-01-22T08:51:51.427Z,99.99
2018-01-22T08:52:51.403Z,99.87
2018-01-22T08:53:51.399Z,99.99
2018-01-22T08:54:51.384Z,99.68
2018-01-22T08:55:51.384Z,99.68
2018-01-22T08:56:51.368Z,99.77
2018-01-22T08:57:51.407Z,99.97
2018-01-22T08:58:51.385Z,99.99
2018-01-22T08:59:51.373Z,99.99
2018-01-22T09:00:51.348Z,99.99
2018-01-22T09:01:51.337Z,99.99
2018-01-22T09:02:51.343Z,99.99
2018-01-22T09:03:51.319Z,99.99
2018-01-22T09:04:51.327Z,99.97
2018-01-22T09:05:51.319Z,99.87
2018-01-22T09:06:51.315Z,99.99
2018-01-22T09:07:51.288Z,99.97
2018-01-22T09:08:51.277Z,99.49
2018-01-22T09:09:51.273Z,99.49
2018-01-22T09:10:51.261Z,99.97
2018-01-22T09:11:51.269Z,99.16
2018-01-22T09:12:51.250Z,99.54
2018-01-22T09:13:51.234Z,99.16
2018-01-22T09:14:51.236Z,99.16
2018-01-22T09:15:51.222Z,99.54
2018-01-22T09:16:51.214Z,98.59
2018-01-22T09:17:51.228Z,98.59
2018-01-22T09:18:51.207Z,98.79
2018-01-22T09:19:51.206Z,98.59
2018-01-22T09:20:51.178Z,98.21
2018-01-22T09:21:51.193Z,98.50
2018-01-22T09:22:51.173Z,98.45
2018-01-22T09:23:51.175Z,98.64
2018-01-22T09:24:51.168Z,98.12
2018-01-22T09:25:51.162Z,98.07
2018-01-22T09:26:51.176Z,98.55
2018-01-22T09:27:51.120Z,98.36
2018-01-22T09:28:51.124Z,97.69
2018-01-22T09:29:51.123Z,98.45
2018-01-22T09:30:51.103Z,97.78
2018-01-22T09:31:51.114Z,97.88
2018-01-22T09:32:51.106Z,97.69
2018-01-22T09:33:51.086Z,98.26
2018-01-22T09:34:51.094Z,98.26
2018-01-22T09:35:51.091Z,98.45
2018-01-22T09:36:51.065Z,98.83
2018-01-22T09:37:51.059Z,98.45
2018-01-22T09:38:51.052Z,98.74
2018-01-22T09:39:51.054Z,98.83
2018-01-22T09:40:51.055Z,98.74
2018-01-22T09:41:51.072Z,98.64
2018-01-22T09:42:51.011Z,98.74
2018-01-22T09:43:51.012Z,99.69
2018-01-22T09:44:50.995Z,99.11
2018-01-22T09:45:50.997Z,99.69
2018-01-22T09:46:50.995Z,99.11
2018-01-22T09:47:51.003Z,99.11
2018-01-22T09:48:50.979Z,99.02
2018-01-22T09:49:50.972Z,99.11
2018-01-22T09:50:50.959Z,99.11
2018-01-22T09:51:50.951Z,99.40
2018-01-22T09:52:50.952Z,99.11
2018-01-22T09:53:50.948Z,99.21
2018-01-22T09:54:50.934Z,98.93
2018-01-22T09:55:50.921Z,99.50
2018-01-22T09:56:50.921Z,99.69
2018-01-22T09:57:50.923Z,99.40
2018-01-22T09:58:50.903Z,99.21
2018-01-22T09:59:50.907Z,99.69
2018-01-22T10:00:50.898Z,99.69
2018-01-22T10:01:50.906Z,99.11
2018-01-22T10:02:50.886Z,99.11
2018-01-22T10:03:50.955Z,99.21
2018-01-22T10:04:50.867Z,99.40
2018-01-22T10:05:50.853Z,99.40
2018-01-22T10:06:50.855Z,99.02
2018-01-22T10:07:50.844Z,99.40
2018-01-22T10:08:50.836Z,99.78
2018-01-22T10:09:50.838Z,99.99
2018-01-22T10:10:50.824Z,99.11
2018-01-22T10:11:50.814Z,99.97
2018-01-22T10:12:50.809Z,99.99
2018-01-22T10:13:50.828Z,99.64
2018-01-22T10:14:50.817Z,99.74
2018-01-22T10:15:50.791Z,99.45
2018-01-22T10:16:50.779Z,99.84
2018-01-22T10:17:50.770Z,99.84
2018-01-22T10:18:50.768Z,99.16
2018-01-22T10:19:50.809Z,99.64
2018-01-22T10:20:50.761Z,99.55
2018-01-22T10:21:50.764Z,99.16
2018-01-22T10:22:50.734Z,98.97
2018-01-22T10:23:50.724Z,98.97
2018-01-22T10:24:50.739Z,99.45
2018-01-22T10:25:50.727Z,99.07
2018-01-22T10:26:50.726Z,99.07
2018-01-22T10:27:50.707Z,99.45
2018-01-22T10:28:50.760Z,99.26
2018-01-22T10:29:50.707Z,99.64
2018-01-22T10:30:50.685Z,99.16
2018-01-22T10:31:50.694Z,99.07
2018-01-22T10:32:50.684Z,99.07
2018-01-22T10:33:50.668Z,98.97
2018-01-22T10:34:50.668Z,99.16
2018-01-22T10:35:50.663Z,99.16
2018-01-22T10:36:50.654Z,99.07
2018-01-22T10:37:50.644Z,99.26
2018-01-22T10:38:50.634Z,99.64
2018-01-22T10:39:50.639Z,99.36
2018-01-22T10:40:50.623Z,99.50
2018-01-22T10:41:50.630Z,99.69
2018-01-22T10:42:50.618Z,99.50
2018-01-22T10:43:50.638Z,99.12
2018-01-22T10:44:50.592Z,99.12
2018-01-22T10:45:50.583Z,98.93
2018-01-22T10:46:50.615Z,98.55
2018-01-22T10:47:50.597Z,98.74
2018-01-22T10:48:50.596Z,99.31
2018-01-22T10:49:50.560Z,99.31
2018-01-22T10:50:50.558Z,99.12
2018-01-22T10:51:50.567Z,98.65
2018-01-22T10:52:50.537Z,98.93
2018-01-22T10:53:50.558Z,99.22
2018-01-22T10:54:50.527Z,99.02
2018-01-22T10:55:50.520Z,98.36
2018-01-22T10:56:50.529Z,98.55
2018-01-22T10:57:50.509Z,98.93
2018-01-22T10:58:50.515Z,98.36
2018-01-22T10:59:50.560Z,98.65
2018-01-22T11:00:50.492Z,99.22
2018-01-22T11:01:50.485Z,99.31
2018-01-22T11:02:50.488Z,99.50
2018-01-22T11:03:50.479Z,99.22
2018-01-22T11:04:50.584Z,99.55
2018-01-22T11:05:50.459Z,99.50
2018-01-22T11:06:50.464Z,99.41
2018-01-22T11:07:50.461Z,99.55
2018-01-22T11:08:50.822Z,98.98
2018-01-22T11:09:50.454Z,99.08
2018-01-22T11:10:50.658Z,98.88
2018-01-22T11:11:50.444Z,99.36
2018-01-22T11:12:50.416Z,98.50
2018-01-22T11:13:50.465Z,98.79
2018-01-22T11:14:50.412Z,98.32
2018-01-22T11:15:50.430Z,98.41
2018-01-22T11:16:50.581Z,98.41
2018-01-22T11:17:50.430Z,98.60
2018-01-22T11:18:50.468Z,98.60
2018-01-22T11:19:50.374Z,97.84
2018-01-22T11:20:50.399Z,98.32
2018-01-22T11:21:50.363Z,98.41
2018-01-22T11:22:50.363Z,98.88
2018-01-22T11:23:50.490Z,98.79
2018-01-22T11:24:50.383Z,98.60
2018-01-22T11:25:50.394Z,98.98
2018-01-22T11:26:50.931Z,98.79
2018-01-22T11:27:50.350Z,98.60
2018-01-22T11:28:50.346Z,98.69
2018-01-22T11:29:50.338Z,98.60
2018-01-22T11:30:50.308Z,98.79
2018-01-22T11:31:50.308Z,98.98
2018-01-22T11:32:50.325Z,98.22
2018-01-22T11:33:50.332Z,98.88
2018-01-22T11:34:50.294Z,98.60
2018-01-22T11:35:50.309Z,98.98
2018-01-22T11:36:50.299Z,98.50
2018-01-22T11:37:50.293Z,98.79
2018-01-22T11:38:50.304Z,98.03
2018-01-22T11:39:50.295Z,98.22
2018-01-22T11:40:50.328Z,97.65
2018-01-22T11:41:50.274Z,97.74
2018-01-22T11:42:50.249Z,97.99
2018-01-22T11:43:50.293Z,97.22
2018-01-22T11:44:50.243Z,96.84
2018-01-22T11:45:50.263Z,96.75
2018-01-22T11:46:50.247Z,96.36
2018-01-22T11:47:50.362Z,96.36
2018-01-22T11:48:50.210Z,95.98
2018-01-22T11:49:50.200Z,96.17
2018-01-22T11:50:50.209Z,96.36
2018-01-22T11:51:50.190Z,96.08
2018-01-22T11:52:50.208Z,95.70
2018-01-22T11:53:50.199Z,95.60
2018-01-22T11:54:50.184Z,95.98
2018-01-22T11:55:50.188Z,96.08
2018-01-22T11:56:50.196Z,96.08
2018-01-22T11:57:50.183Z,95.89
2018-01-22T11:58:50.153Z,95.51
2018-01-22T11:59:50.164Z,95.03
2018-01-22T12:00:50.159Z,95.32
2018-01-22T12:01:50.133Z,95.32
2018-01-22T12:02:50.152Z,95.41
2018-01-22T12:03:50.143Z,95.60
2018-01-22T12:04:50.142Z,95.41
2018-01-22T12:05:50.116Z,94.65
2018-01-22T12:06:50.106Z,94.56
2018-01-22T12:07:50.113Z,94.84
2018-01-22T12:08:50.227Z,94.93
2018-01-22T12:09:50.111Z,94.93
2018-01-22T12:10:50.087Z,94.65
2018-01-22T12:11:50.083Z,95.03
2018-01-22T12:12:50.086Z,94.56
2018-01-22T12:13:50.072Z,94.74
2018-01-22T12:14:50.057Z,94.93
2018-01-22T12:15:50.072Z,94.27
2018-01-22T12:16:50.081Z,94.27
2018-01-22T12:17:50.078Z,94.17
2018-01-22T12:18:50.048Z,94.27
2018-01-22T12:19:50.045Z,93.89
2018-01-22T12:20:50.041Z,93.60
2018-01-22T12:21:50.022Z,93.89
2018-01-22T12:22:50.023Z,94.37
2018-01-22T12:23:50.011Z,93.70
2018-01-22T12:24:50.017Z,93.98
2018-01-22T12:25:50.008Z,93.60
2018-01-22T12:26:50.014Z,93.89
2018-01-22T12:27:49.989Z,93.60
2018-01-22T12:28:50.040Z,93.32
2018-01-22T12:29:50.004Z,93.60
2018-01-22T12:30:49.995Z,92.94
2018-01-22T12:31:49.982Z,93.41
2018-01-22T12:32:49.967Z,92.94
2018-01-22T12:33:49.954Z,92.94
2018-01-22T12:34:49.962Z,93.22
2018-01-22T12:35:49.981Z,92.50
2018-01-22T12:36:49.961Z,92.94
2018-01-22T12:37:49.938Z,92.55
2018-01-22T12:38:49.928Z,92.55
2018-01-22T12:39:49.957Z,92.55
2018-01-22T12:40:49.948Z,92.65
2018-01-22T12:41:49.935Z,92.65
2018-01-22T12:42:49.932Z,91.94
2018-01-22T12:43:49.904Z,91.65
2018-01-22T12:44:49.895Z,91.94
2018-01-22T12:45:49.919Z,92.03
2018-01-22T12:46:49.899Z,92.22
2018-01-22T12:47:49.885Z,92.69
2018-01-22T12:48:49.911Z,92.60
2018-01-22T12:49:49.881Z,92.22
2018-01-22T12:50:49.890Z,92.03
2018-01-22T12:51:49.880Z,91.84
2018-01-22T12:52:49.854Z,91.94